sensor_id;sensor_type;location;lat;lon;timestamp;P1;durP1;ratioP1;P2;durP2;ratioP2
8177;SDS011;4130;48.740;9.132;2023-02-08T00:02:22;4.87;;;3.97;;
8177;SDS011;4130;48.740;9.132;2023-02-08T00:04:49;8.07;;;4.43;;
8177;SDS011;4130;48.740;9.132;2023-02-08T00:07:16;6.57;;;3.97;;
8177;SDS011;4130;48.740;9.132;2023-02-08T00:09:44;6.77;;;4.20;;
8177;SDS011;4130;48.740;9.132;2023-02-08T00:12:11;7.03;;;4.43;;
8177;SDS011;4130;48.740;9.132;2023-02-08T00:14:37;6.00;;;4.40;;
8177;SDS011;4130;48.740;9.132;2023-02-08T00:17:04;8.23;;;4.63;;
8177;SDS011;4130;48.740;9.132;2023-02-08T00:19:32;6.03;;;4.13;;
8177;SDS011;4130;48.740;9.132;2023-02-08T00:21:58;8.13;;;4.77;;
8177;SDS011;4130;48.740;9.132;2023-02-08T00:24:25;5.90;;;4.10;;
8177;SDS011;4130;48.740;9.132;2023-02-08T00:26:53;7.40;;;4.30;;
8177;SDS011;4130;48.740;9.132;2023-02-08T00:29:20;6.60;;;4.53;;
8177;SDS011;4130;48.740;9.132;2023-02-08T00:31:46;6.87;;;5.00;;
8177;SDS011;4130;48.740;9.132;2023-02-08T00:34:13;5.80;;;4.33;;
8177;SDS011;4130;48.740;9.132;2023-02-08T00:36:40;6.07;;;4.13;;
8177;SDS011;4130;48.740;9.132;2023-02-08T00:39:07;6.73;;;4.53;;
8177;SDS011;4130;48.740;9.132;2023-02-08T00:41:34;5.13;;;4.00;;
8177;SDS011;4130;48.740;9.132;2023-02-08T00:44:02;6.27;;;4.40;;
8177;SDS011;4130;48.740;9.132;2023-02-08T00:46:29;8.03;;;4.23;;
8177;SDS011;4130;48.740;9.132;2023-02-08T00:48:56;6.20;;;4.23;;
8177;SDS011;4130;48.740;9.132;2023-02-08T00:51:22;7.13;;;4.17;;
8177;SDS011;4130;48.740;9.132;2023-02-08T00:53:49;5.37;;;3.43;;
8177;SDS011;4130;48.740;9.132;2023-02-08T00:56:17;6.73;;;4.00;;
8177;SDS011;4130;48.740;9.132;2023-02-08T00:58:44;5.40;;;4.07;;
8177;SDS011;4130;48.740;9.132;2023-02-08T01:01:12;6.67;;;4.23;;
8177;SDS011;4130;48.740;9.132;2023-02-08T01:03:40;9.97;;;4.60;;
8177;SDS011;4130;48.740;9.132;2023-02-08T01:06:08;7.07;;;4.57;;
8177;SDS011;4130;48.740;9.132;2023-02-08T01:08:38;6.53;;;4.53;;
8177;SDS011;4130;48.740;9.132;2023-02-08T01:11:06;6.53;;;4.10;;
8177;SDS011;4130;48.740;9.132;2023-02-08T01:13:35;5.33;;;4.30;;
8177;SDS011;4130;48.740;9.132;2023-02-08T01:16:05;6.83;;;4.53;;
8177;SDS011;4130;48.740;9.132;2023-02-08T01:18:35;6.37;;;4.07;;
8177;SDS011;4130;48.740;9.132;2023-02-08T01:21:03;8.57;;;5.23;;
8177;SDS011;4130;48.740;9.132;2023-02-08T01:23:31;9.23;;;5.73;;
8177;SDS011;4130;48.740;9.132;2023-02-08T01:25:59;6.83;;;4.57;;
8177;SDS011;4130;48.740;9.132;2023-02-08T01:28:27;9.43;;;4.80;;
8177;SDS011;4130;48.740;9.132;2023-02-08T01:30:54;6.40;;;3.87;;
8177;SDS011;4130;48.740;9.132;2023-02-08T01:33:21;9.20;;;5.13;;
8177;SDS011;4130;48.740;9.132;2023-02-08T01:35:50;6.97;;;4.43;;
8177;SDS011;4130;48.740;9.132;2023-02-08T01:38:17;5.97;;;4.23;;
8177;SDS011;4130;48.740;9.132;2023-02-08T01:40:44;6.53;;;4.53;;
8177;SDS011;4130;48.740;9.132;2023-02-08T01:43:15;7.93;;;4.87;;
8177;SDS011;4130;48.740;9.132;2023-02-08T01:45:47;5.93;;;4.07;;
8177;SDS011;4130;48.740;9.132;2023-02-08T01:48:14;5.37;;;4.60;;
8177;SDS011;4130;48.740;9.132;2023-02-08T01:50:47;5.47;;;4.70;;
8177;SDS011;4130;48.740;9.132;2023-02-08T01:53:19;6.67;;;4.50;;
8177;SDS011;4130;48.740;9.132;2023-02-08T01:55:49;6.30;;;4.43;;
8177;SDS011;4130;48.740;9.132;2023-02-08T01:58:20;6.67;;;5.23;;
8177;SDS011;4130;48.740;9.132;2023-02-08T02:00:49;7.70;;;5.10;;
8177;SDS011;4130;48.740;9.132;2023-02-08T02:03:16;9.17;;;5.20;;
8177;SDS011;4130;48.740;9.132;2023-02-08T02:05:45;8.00;;;4.20;;
8177;SDS011;4130;48.740;9.132;2023-02-08T02:08:16;6.20;;;4.27;;
8177;SDS011;4130;48.740;9.132;2023-02-08T02:10:43;6.70;;;4.73;;
8177;SDS011;4130;48.740;9.132;2023-02-08T02:13:13;6.83;;;4.73;;
8177;SDS011;4130;48.740;9.132;2023-02-08T02:15:43;7.67;;;4.40;;
8177;SDS011;4130;48.740;9.132;2023-02-08T02:18:11;5.87;;;4.53;;
8177;SDS011;4130;48.740;9.132;2023-02-08T02:20:46;8.10;;;4.73;;
8177;SDS011;4130;48.740;9.132;2023-02-08T02:23:42;8.27;;;4.33;;
8177;SDS011;4130;48.740;9.132;2023-02-08T02:32:37;4.53;;;3.97;;
8177;SDS011;4130;48.740;9.132;2023-02-08T02:35:13;11.20;;;4.60;;
8177;SDS011;4130;48.740;9.132;2023-02-08T02:37:46;7.57;;;5.00;;
8177;SDS011;4130;48.740;9.132;2023-02-08T02:40:22;6.30;;;4.07;;
8177;SDS011;4130;48.740;9.132;2023-02-08T02:43:04;6.87;;;4.87;;
8177;SDS011;4130;48.740;9.132;2023-02-08T02:46:02;4.27;;;3.63;;
8177;SDS011;4130;48.740;9.132;2023-02-08T02:48:41;8.37;;;4.53;;
8177;SDS011;4130;48.740;9.132;2023-02-08T02:51:16;6.03;;;4.60;;
8177;SDS011;4130;48.740;9.132;2023-02-08T02:53:51;6.70;;;4.30;;
8177;SDS011;4130;48.740;9.132;2023-02-08T02:56:24;6.90;;;4.27;;
8177;SDS011;4130;48.740;9.132;2023-02-08T02:58:56;8.53;;;4.87;;
8177;SDS011;4130;48.740;9.132;2023-02-08T03:01:27;6.87;;;4.80;;
8177;SDS011;4130;48.740;9.132;2023-02-08T03:03:56;6.50;;;4.17;;
8177;SDS011;4130;48.740;9.132;2023-02-08T03:06:27;4.87;;;4.23;;
8177;SDS011;4130;48.740;9.132;2023-02-08T03:09:13;7.53;;;4.27;;
8177;SDS011;4130;48.740;9.132;2023-02-08T03:11:52;8.53;;;5.27;;
8177;SDS011;4130;48.740;9.132;2023-02-08T03:14:29;6.60;;;4.70;;
8177;SDS011;4130;48.740;9.132;2023-02-08T03:17:11;6.27;;;4.03;;
8177;SDS011;4130;48.740;9.132;2023-02-08T03:19:51;4.93;;;3.90;;
8177;SDS011;4130;48.740;9.132;2023-02-08T03:22:22;5.53;;;4.37;;
8177;SDS011;4130;48.740;9.132;2023-02-08T03:24:57;6.57;;;4.57;;
8177;SDS011;4130;48.740;9.132;2023-02-08T03:27:29;4.67;;;3.97;;
8177;SDS011;4130;48.740;9.132;2023-02-08T03:30:00;6.83;;;4.40;;
8177;SDS011;4130;48.740;9.132;2023-02-08T03:32:35;5.53;;;3.63;;
8177;SDS011;4130;48.740;9.132;2023-02-08T03:35:10;7.47;;;4.57;;
8177;SDS011;4130;48.740;9.132;2023-02-08T03:37:43;6.97;;;4.27;;
8177;SDS011;4130;48.740;9.132;2023-02-08T03:40:13;8.53;;;4.43;;
8177;SDS011;4130;48.740;9.132;2023-02-08T03:42:43;6.43;;;4.67;;
8177;SDS011;4130;48.740;9.132;2023-02-08T03:45:15;6.90;;;4.37;;
8177;SDS011;4130;48.740;9.132;2023-02-08T03:47:45;8.13;;;4.87;;
8177;SDS011;4130;48.740;9.132;2023-02-08T03:50:16;7.07;;;4.20;;
8177;SDS011;4130;48.740;9.132;2023-02-08T03:52:45;5.87;;;4.07;;
8177;SDS011;4130;48.740;9.132;2023-02-08T03:55:14;9.20;;;5.10;;
8177;SDS011;4130;48.740;9.132;2023-02-08T03:57:45;9.43;;;4.50;;
8177;SDS011;4130;48.740;9.132;2023-02-08T04:00:16;6.40;;;4.00;;
8177;SDS011;4130;48.740;9.132;2023-02-08T04:02:47;5.50;;;3.80;;
8177;SDS011;4130;48.740;9.132;2023-02-08T04:05:18;8.20;;;4.63;;
8177;SDS011;4130;48.740;9.132;2023-02-08T04:07:46;6.20;;;4.33;;
8177;SDS011;4130;48.740;9.132;2023-02-08T04:10:13;6.27;;;3.60;;
8177;SDS011;4130;48.740;9.132;2023-02-08T04:12:41;8.30;;;4.07;;
8177;SDS011;4130;48.740;9.132;2023-02-08T04:15:08;5.50;;;4.03;;
8177;SDS011;4130;48.740;9.132;2023-02-08T04:17:36;8.60;;;4.90;;
8177;SDS011;4130;48.740;9.132;2023-02-08T04:20:03;7.73;;;4.33;;
8177;SDS011;4130;48.740;9.132;2023-02-08T04:22:32;5.40;;;4.03;;
8177;SDS011;4130;48.740;9.132;2023-02-08T04:24:59;4.40;;;4.00;;
8177;SDS011;4130;48.740;9.132;2023-02-08T04:27:26;6.33;;;4.27;;
8177;SDS011;4130;48.740;9.132;2023-02-08T04:29:53;4.70;;;3.67;;
8177;SDS011;4130;48.740;9.132;2023-02-08T04:32:20;5.90;;;4.03;;
8177;SDS011;4130;48.740;9.132;2023-02-08T04:34:47;5.27;;;4.50;;
8177;SDS011;4130;48.740;9.132;2023-02-08T04:37:14;9.63;;;4.17;;
8177;SDS011;4130;48.740;9.132;2023-02-08T04:39:43;7.40;;;3.93;;
8177;SDS011;4130;48.740;9.132;2023-02-08T04:42:10;5.50;;;4.03;;
8177;SDS011;4130;48.740;9.132;2023-02-08T04:44:37;7.87;;;4.20;;
8177;SDS011;4130;48.740;9.132;2023-02-08T04:47:04;6.40;;;4.30;;
8177;SDS011;4130;48.740;9.132;2023-02-08T04:49:34;6.67;;;4.70;;
8177;SDS011;4130;48.740;9.132;2023-02-08T04:52:01;8.40;;;4.40;;
8177;SDS011;4130;48.740;9.132;2023-02-08T04:54:28;5.27;;;3.73;;
8177;SDS011;4130;48.740;9.132;2023-02-08T04:56:57;6.40;;;4.10;;
8177;SDS011;4130;48.740;9.132;2023-02-08T04:59:24;9.63;;;4.27;;
8177;SDS011;4130;48.740;9.132;2023-02-08T05:01:51;7.10;;;4.20;;
8177;SDS011;4130;48.740;9.132;2023-02-08T05:04:18;6.67;;;4.53;;
8177;SDS011;4130;48.740;9.132;2023-02-08T05:06:45;5.97;;;4.37;;
8177;SDS011;4130;48.740;9.132;2023-02-08T05:09:12;4.90;;;4.10;;
8177;SDS011;4130;48.740;9.132;2023-02-08T05:11:39;5.77;;;4.30;;
8177;SDS011;4130;48.740;9.132;2023-02-08T05:14:08;6.33;;;3.93;;
8177;SDS011;4130;48.740;9.132;2023-02-08T05:16:35;5.20;;;4.00;;
8177;SDS011;4130;48.740;9.132;2023-02-08T05:19:02;7.13;;;4.90;;
8177;SDS011;4130;48.740;9.132;2023-02-08T05:21:29;6.03;;;4.43;;
8177;SDS011;4130;48.740;9.132;2023-02-08T05:23:56;6.00;;;4.57;;
8177;SDS011;4130;48.740;9.132;2023-02-08T05:26:23;6.23;;;4.60;;
8177;SDS011;4130;48.740;9.132;2023-02-08T05:28:52;5.63;;;4.40;;
8177;SDS011;4130;48.740;9.132;2023-02-08T05:31:21;5.80;;;4.13;;
8177;SDS011;4130;48.740;9.132;2023-02-08T05:33:49;6.17;;;4.17;;
8177;SDS011;4130;48.740;9.132;2023-02-08T05:36:17;8.13;;;4.70;;
8177;SDS011;4130;48.740;9.132;2023-02-08T05:38:45;4.90;;;4.37;;
8177;SDS011;4130;48.740;9.132;2023-02-08T05:41:12;6.20;;;4.50;;
8177;SDS011;4130;48.740;9.132;2023-02-08T05:43:39;8.73;;;4.30;;
8177;SDS011;4130;48.740;9.132;2023-02-08T05:46:07;5.00;;;4.03;;
8177;SDS011;4130;48.740;9.132;2023-02-08T05:48:35;6.90;;;4.57;;
8177;SDS011;4130;48.740;9.132;2023-02-08T05:51:03;6.60;;;4.43;;
8177;SDS011;4130;48.740;9.132;2023-02-08T05:53:30;5.87;;;4.80;;
8177;SDS011;4130;48.740;9.132;2023-02-08T05:55:57;8.33;;;5.20;;
8177;SDS011;4130;48.740;9.132;2023-02-08T05:58:26;6.00;;;4.50;;
8177;SDS011;4130;48.740;9.132;2023-02-08T06:00:53;5.87;;;4.13;;
8177;SDS011;4130;48.740;9.132;2023-02-08T06:03:20;7.17;;;4.43;;
8177;SDS011;4130;48.740;9.132;2023-02-08T06:05:49;6.63;;;4.10;;
8177;SDS011;4130;48.740;9.132;2023-02-08T06:08:16;8.50;;;4.80;;
8177;SDS011;4130;48.740;9.132;2023-02-08T06:10:43;6.23;;;4.27;;
8177;SDS011;4130;48.740;9.132;2023-02-08T06:13:13;7.70;;;4.60;;
8177;SDS011;4130;48.740;9.132;2023-02-08T06:15:40;5.83;;;4.53;;
8177;SDS011;4130;48.740;9.132;2023-02-08T06:18:07;7.90;;;4.67;;
8177;SDS011;4130;48.740;9.132;2023-02-08T06:20:36;9.73;;;4.47;;
8177;SDS011;4130;48.740;9.132;2023-02-08T06:23:05;5.60;;;4.50;;
8177;SDS011;4130;48.740;9.132;2023-02-08T06:25:32;5.67;;;4.23;;
8177;SDS011;4130;48.740;9.132;2023-02-08T06:28:00;6.80;;;4.80;;
8177;SDS011;4130;48.740;9.132;2023-02-08T06:30:27;6.73;;;4.23;;
8177;SDS011;4130;48.740;9.132;2023-02-08T06:32:54;10.73;;;4.80;;
8177;SDS011;4130;48.740;9.132;2023-02-08T06:35:21;5.83;;;4.77;;
8177;SDS011;4130;48.740;9.132;2023-02-08T06:37:49;4.70;;;3.50;;
8177;SDS011;4130;48.740;9.132;2023-02-08T06:40:17;7.27;;;4.47;;
8177;SDS011;4130;48.740;9.132;2023-02-08T06:42:45;5.03;;;4.07;;
8177;SDS011;4130;48.740;9.132;2023-02-08T06:45:12;14.97;;;5.07;;
8177;SDS011;4130;48.740;9.132;2023-02-08T06:47:40;7.33;;;4.50;;
8177;SDS011;4130;48.740;9.132;2023-02-08T06:50:10;9.20;;;5.07;;
8177;SDS011;4130;48.740;9.132;2023-02-08T06:52:39;6.97;;;4.67;;
8177;SDS011;4130;48.740;9.132;2023-02-08T06:55:06;8.17;;;4.00;;
8177;SDS011;4130;48.740;9.132;2023-02-08T06:57:35;7.90;;;4.20;;
8177;SDS011;4130;48.740;9.132;2023-02-08T07:00:02;6.13;;;4.80;;
8177;SDS011;4130;48.740;9.132;2023-02-08T07:02:29;6.93;;;5.17;;
8177;SDS011;4130;48.740;9.132;2023-02-08T07:04:56;6.60;;;4.60;;
8177;SDS011;4130;48.740;9.132;2023-02-08T07:07:23;6.73;;;4.30;;
8177;SDS011;4130;48.740;9.132;2023-02-08T07:09:50;7.13;;;4.60;;
8177;SDS011;4130;48.740;9.132;2023-02-08T07:12:18;6.80;;;4.93;;
8177;SDS011;4130;48.740;9.132;2023-02-08T07:14:46;7.33;;;4.33;;
8177;SDS011;4130;48.740;9.132;2023-02-08T07:17:13;13.07;;;4.93;;
8177;SDS011;4130;48.740;9.132;2023-02-08T07:19:40;7.33;;;4.90;;
8177;SDS011;4130;48.740;9.132;2023-02-08T07:22:07;6.07;;;4.27;;
8177;SDS011;4130;48.740;9.132;2023-02-08T07:24:34;7.47;;;4.73;;
8177;SDS011;4130;48.740;9.132;2023-02-08T07:27:02;11.53;;;5.37;;
8177;SDS011;4130;48.740;9.132;2023-02-08T07:29:30;9.90;;;5.63;;
8177;SDS011;4130;48.740;9.132;2023-02-08T07:32:00;7.63;;;5.13;;
8177;SDS011;4130;48.740;9.132;2023-02-08T07:34:27;9.27;;;5.33;;
8177;SDS011;4130;48.740;9.132;2023-02-08T07:36:56;10.47;;;6.43;;
8177;SDS011;4130;48.740;9.132;2023-02-08T07:39:23;10.50;;;6.40;;
8177;SDS011;4130;48.740;9.132;2023-02-08T07:41:51;8.50;;;5.60;;
8177;SDS011;4130;48.740;9.132;2023-02-08T07:44:18;8.70;;;5.13;;
8177;SDS011;4130;48.740;9.132;2023-02-08T07:46:45;5.13;;;4.20;;
8177;SDS011;4130;48.740;9.132;2023-02-08T07:49:13;7.73;;;5.23;;
8177;SDS011;4130;48.740;9.132;2023-02-08T07:51:40;8.37;;;5.20;;
8177;SDS011;4130;48.740;9.132;2023-02-08T07:54:07;6.17;;;4.80;;
8177;SDS011;4130;48.740;9.132;2023-02-08T07:56:34;8.00;;;4.63;;
8177;SDS011;4130;48.740;9.132;2023-02-08T07:59:01;8.43;;;5.40;;
8177;SDS011;4130;48.740;9.132;2023-02-08T08:01:28;9.50;;;5.93;;
8177;SDS011;4130;48.740;9.132;2023-02-08T08:03:55;8.33;;;4.93;;
8177;SDS011;4130;48.740;9.132;2023-02-08T08:06:23;7.37;;;5.10;;
8177;SDS011;4130;48.740;9.132;2023-02-08T08:08:49;8.90;;;6.07;;
8177;SDS011;4130;48.740;9.132;2023-02-08T08:11:18;9.40;;;5.73;;
8177;SDS011;4130;48.740;9.132;2023-02-08T08:13:45;8.07;;;5.87;;
8177;SDS011;4130;48.740;9.132;2023-02-08T08:16:13;10.90;;;5.83;;
8177;SDS011;4130;48.740;9.132;2023-02-08T08:18:40;7.40;;;5.03;;
8177;SDS011;4130;48.740;9.132;2023-02-08T08:21:07;8.10;;;5.17;;
8177;SDS011;4130;48.740;9.132;2023-02-08T08:23:35;7.13;;;5.10;;
8177;SDS011;4130;48.740;9.132;2023-02-08T08:26:05;12.67;;;6.07;;
8177;SDS011;4130;48.740;9.132;2023-02-08T08:28:33;9.13;;;5.87;;
8177;SDS011;4130;48.740;9.132;2023-02-08T08:31:00;12.40;;;5.20;;
8177;SDS011;4130;48.740;9.132;2023-02-08T08:33:27;7.73;;;5.63;;
8177;SDS011;4130;48.740;9.132;2023-02-08T08:35:53;11.90;;;5.93;;
8177;SDS011;4130;48.740;9.132;2023-02-08T08:38:20;9.97;;;5.60;;
8177;SDS011;4130;48.740;9.132;2023-02-08T08:40:48;11.10;;;5.37;;
8177;SDS011;4130;48.740;9.132;2023-02-08T08:43:15;7.60;;;5.10;;
8177;SDS011;4130;48.740;9.132;2023-02-08T08:45:42;8.53;;;5.70;;
8177;SDS011;4130;48.740;9.132;2023-02-08T08:48:09;9.60;;;6.10;;
8177;SDS011;4130;48.740;9.132;2023-02-08T08:50:35;9.03;;;6.27;;
8177;SDS011;4130;48.740;9.132;2023-02-08T08:53:03;10.20;;;6.10;;
8177;SDS011;4130;48.740;9.132;2023-02-08T08:55:30;11.00;;;6.10;;
8177;SDS011;4130;48.740;9.132;2023-02-08T08:57:58;9.10;;;5.67;;
8177;SDS011;4130;48.740;9.132;2023-02-08T09:00:25;12.60;;;7.00;;
8177;SDS011;4130;48.740;9.132;2023-02-08T09:02:59;9.37;;;6.17;;
8177;SDS011;4130;48.740;9.132;2023-02-08T09:05:25;9.87;;;6.40;;
8177;SDS011;4130;48.740;9.132;2023-02-08T09:07:52;9.77;;;6.13;;
8177;SDS011;4130;48.740;9.132;2023-02-08T09:10:19;13.83;;;6.80;;
8177;SDS011;4130;48.740;9.132;2023-02-08T09:12:46;9.23;;;6.70;;
8177;SDS011;4130;48.740;9.132;2023-02-08T09:15:14;12.10;;;7.27;;
8177;SDS011;4130;48.740;9.132;2023-02-08T09:17:41;9.87;;;6.33;;
8177;SDS011;4130;48.740;9.132;2023-02-08T09:20:08;13.63;;;7.10;;
8177;SDS011;4130;48.740;9.132;2023-02-08T09:22:35;9.67;;;6.50;;
8177;SDS011;4130;48.740;9.132;2023-02-08T09:25:02;11.17;;;6.97;;
8177;SDS011;4130;48.740;9.132;2023-02-08T09:27:30;11.00;;;7.33;;
8177;SDS011;4130;48.740;9.132;2023-02-08T09:29:56;16.97;;;8.07;;
8177;SDS011;4130;48.740;9.132;2023-02-08T09:32:25;12.53;;;8.07;;
8177;SDS011;4130;48.740;9.132;2023-02-08T09:34:51;11.67;;;7.00;;
8177;SDS011;4130;48.740;9.132;2023-02-08T09:37:18;16.90;;;7.77;;
8177;SDS011;4130;48.740;9.132;2023-02-08T09:39:45;15.47;;;8.10;;
8177;SDS011;4130;48.740;9.132;2023-02-08T09:42:17;14.83;;;7.97;;
8177;SDS011;4130;48.740;9.132;2023-02-08T09:47:52;16.40;;;9.10;;
8177;SDS011;4130;48.740;9.132;2023-02-08T09:50:25;14.90;;;9.03;;
8177;SDS011;4130;48.740;9.132;2023-02-08T09:53:00;15.87;;;8.67;;
8177;SDS011;4130;48.740;9.132;2023-02-08T09:55:33;16.97;;;8.53;;
8177;SDS011;4130;48.740;9.132;2023-02-08T09:58:06;15.00;;;7.70;;
8177;SDS011;4130;48.740;9.132;2023-02-08T10:00:42;14.10;;;8.37;;
8177;SDS011;4130;48.740;9.132;2023-02-08T10:03:18;14.87;;;8.47;;
8177;SDS011;4130;48.740;9.132;2023-02-08T10:05:56;11.30;;;7.20;;
8177;SDS011;4130;48.740;9.132;2023-02-08T10:08:23;11.27;;;6.10;;
8177;SDS011;4130;48.740;9.132;2023-02-08T10:10:52;10.83;;;6.70;;
8177;SDS011;4130;48.740;9.132;2023-02-08T10:13:25;11.17;;;6.37;;
8177;SDS011;4130;48.740;9.132;2023-02-08T10:16:03;12.47;;;6.40;;
8177;SDS011;4130;48.740;9.132;2023-02-08T10:18:43;10.90;;;5.97;;
8177;SDS011;4130;48.740;9.132;2023-02-08T10:21:23;13.27;;;5.97;;
8177;SDS011;4130;48.740;9.132;2023-02-08T10:24:07;8.33;;;5.43;;
8177;SDS011;4130;48.740;9.132;2023-02-08T10:26:45;9.97;;;6.40;;
8177;SDS011;4130;48.740;9.132;2023-02-08T10:29:27;12.97;;;6.50;;
8177;SDS011;4130;48.740;9.132;2023-02-08T10:32:23;11.83;;;6.20;;
8177;SDS011;4130;48.740;9.132;2023-02-08T10:35:07;10.27;;;6.10;;
8177;SDS011;4130;48.740;9.132;2023-02-08T10:37:38;11.10;;;6.27;;
8177;SDS011;4130;48.740;9.132;2023-02-08T10:40:21;10.03;;;6.30;;
8177;SDS011;4130;48.740;9.132;2023-02-08T10:42:57;12.37;;;6.43;;
8177;SDS011;4130;48.740;9.132;2023-02-08T10:45:46;14.10;;;6.37;;
8177;SDS011;4130;48.740;9.132;2023-02-08T10:48:21;10.57;;;6.77;;
8177;SDS011;4130;48.740;9.132;2023-02-08T10:50:58;12.33;;;7.03;;
8177;SDS011;4130;48.740;9.132;2023-02-08T10:53:27;11.43;;;7.07;;
8177;SDS011;4130;48.740;9.132;2023-02-08T10:55:54;9.53;;;5.77;;
8177;SDS011;4130;48.740;9.132;2023-02-08T10:58:23;14.37;;;6.10;;
8177;SDS011;4130;48.740;9.132;2023-02-08T11:00:51;6.77;;;5.47;;
8177;SDS011;4130;48.740;9.132;2023-02-08T11:03:23;12.93;;;6.37;;
8177;SDS011;4130;48.740;9.132;2023-02-08T11:05:51;9.93;;;6.03;;
8177;SDS011;4130;48.740;9.132;2023-02-08T11:08:20;11.10;;;6.80;;
8177;SDS011;4130;48.740;9.132;2023-02-08T11:10:56;10.10;;;6.07;;
8177;SDS011;4130;48.740;9.132;2023-02-08T11:13:26;10.50;;;6.37;;
8177;SDS011;4130;48.740;9.132;2023-02-08T11:16:00;11.70;;;6.17;;
8177;SDS011;4130;48.740;9.132;2023-02-08T11:18:32;8.67;;;6.27;;
8177;SDS011;4130;48.740;9.132;2023-02-08T11:21:03;10.30;;;5.97;;
8177;SDS011;4130;48.740;9.132;2023-02-08T11:23:38;17.07;;;6.53;;
8177;SDS011;4130;48.740;9.132;2023-02-08T11:26:15;8.43;;;6.03;;
8177;SDS011;4130;48.740;9.132;2023-02-08T11:28:57;12.17;;;5.90;;
8177;SDS011;4130;48.740;9.132;2023-02-08T11:31:26;11.23;;;6.40;;
8177;SDS011;4130;48.740;9.132;2023-02-08T11:33:58;11.87;;;6.40;;
8177;SDS011;4130;48.740;9.132;2023-02-08T11:36:27;17.80;;;7.13;;
8177;SDS011;4130;48.740;9.132;2023-02-08T11:38:56;9.50;;;5.97;;
8177;SDS011;4130;48.740;9.132;2023-02-08T11:41:25;11.67;;;5.27;;
8177;SDS011;4130;48.740;9.132;2023-02-08T11:44:00;9.80;;;5.43;;
8177;SDS011;4130;48.740;9.132;2023-02-08T11:46:31;9.27;;;5.60;;
8177;SDS011;4130;48.740;9.132;2023-02-08T11:48:59;9.60;;;5.70;;
8177;SDS011;4130;48.740;9.132;2023-02-08T11:51:28;9.13;;;6.30;;
8177;SDS011;4130;48.740;9.132;2023-02-08T11:54:00;10.63;;;6.00;;
8177;SDS011;4130;48.740;9.132;2023-02-08T11:56:28;13.47;;;5.37;;
8177;SDS011;4130;48.740;9.132;2023-02-08T11:58:58;9.43;;;5.83;;
8177;SDS011;4130;48.740;9.132;2023-02-08T12:01:28;14.17;;;6.63;;
8177;SDS011;4130;48.740;9.132;2023-02-08T12:03:58;7.60;;;4.37;;
8177;SDS011;4130;48.740;9.132;2023-02-08T12:09:50;8.13;;;4.00;;
8177;SDS011;4130;48.740;9.132;2023-02-08T12:12:32;6.23;;;3.63;;
8177;SDS011;4130;48.740;9.132;2023-02-08T12:15:14;3.73;;;3.00;;
8177;SDS011;4130;48.740;9.132;2023-02-08T12:18:00;6.30;;;3.70;;
8177;SDS011;4130;48.740;9.132;2023-02-08T12:20:40;4.73;;;3.37;;
8177;SDS011;4130;48.740;9.132;2023-02-08T12:23:20;6.70;;;4.10;;
8177;SDS011;4130;48.740;9.132;2023-02-08T12:26:01;7.67;;;4.10;;
8177;SDS011;4130;48.740;9.132;2023-02-08T12:28:41;9.77;;;4.13;;
8177;SDS011;4130;48.740;9.132;2023-02-08T12:31:19;6.57;;;3.90;;
8177;SDS011;4130;48.740;9.132;2023-02-08T12:33:57;6.43;;;3.60;;
8177;SDS011;4130;48.740;9.132;2023-02-08T12:36:33;13.53;;;3.80;;
8177;SDS011;4130;48.740;9.132;2023-02-08T12:39:34;6.80;;;3.57;;
8177;SDS011;4130;48.740;9.132;2023-02-08T12:42:42;6.43;;;3.80;;
8177;SDS011;4130;48.740;9.132;2023-02-08T12:45:42;8.50;;;4.20;;
8177;SDS011;4130;48.740;9.132;2023-02-08T12:48:27;6.00;;;3.70;;
8177;SDS011;4130;48.740;9.132;2023-02-08T12:51:07;7.37;;;3.53;;
8177;SDS011;4130;48.740;9.132;2023-02-08T12:53:43;7.03;;;4.50;;
8177;SDS011;4130;48.740;9.132;2023-02-08T12:56:18;7.00;;;3.73;;
8177;SDS011;4130;48.740;9.132;2023-02-08T12:58:50;9.67;;;4.13;;
8177;SDS011;4130;48.740;9.132;2023-02-08T13:01:22;8.33;;;4.63;;
8177;SDS011;4130;48.740;9.132;2023-02-08T13:03:51;6.67;;;4.27;;
8177;SDS011;4130;48.740;9.132;2023-02-08T13:06:22;8.73;;;5.23;;
8177;SDS011;4130;48.740;9.132;2023-02-08T13:08:54;6.20;;;4.33;;
8177;SDS011;4130;48.740;9.132;2023-02-08T13:11:27;6.13;;;4.27;;
8177;SDS011;4130;48.740;9.132;2023-02-08T13:14:02;6.63;;;4.57;;
8177;SDS011;4130;48.740;9.132;2023-02-08T13:16:36;6.93;;;4.33;;
8177;SDS011;4130;48.740;9.132;2023-02-08T13:19:17;6.67;;;4.07;;
8177;SDS011;4130;48.740;9.132;2023-02-08T13:21:50;5.53;;;3.90;;
8177;SDS011;4130;48.740;9.132;2023-02-08T13:24:23;6.23;;;3.90;;
8177;SDS011;4130;48.740;9.132;2023-02-08T13:26:54;4.93;;;3.57;;
8177;SDS011;4130;48.740;9.132;2023-02-08T13:29:23;6.03;;;4.03;;
8177;SDS011;4130;48.740;9.132;2023-02-08T13:31:52;9.33;;;4.20;;
8177;SDS011;4130;48.740;9.132;2023-02-08T13:34:25;5.97;;;3.80;;
8177;SDS011;4130;48.740;9.132;2023-02-08T13:36:56;6.37;;;3.93;;
8177;SDS011;4130;48.740;9.132;2023-02-08T13:39:31;4.70;;;3.37;;
8177;SDS011;4130;48.740;9.132;2023-02-08T13:42:00;6.17;;;3.70;;
8177;SDS011;4130;48.740;9.132;2023-02-08T13:44:31;8.27;;;4.40;;
8177;SDS011;4130;48.740;9.132;2023-02-08T13:47:01;5.47;;;4.00;;
8177;SDS011;4130;48.740;9.132;2023-02-08T13:49:42;7.83;;;4.57;;
8177;SDS011;4130;48.740;9.132;2023-02-08T14:01:27;5.37;;;3.97;;
8177;SDS011;4130;48.740;9.132;2023-02-08T14:07:05;6.63;;;4.03;;
8177;SDS011;4130;48.740;9.132;2023-02-08T14:09:53;7.30;;;4.37;;
8177;SDS011;4130;48.740;9.132;2023-02-08T14:12:36;5.97;;;3.73;;
8177;SDS011;4130;48.740;9.132;2023-02-08T14:15:23;7.70;;;3.83;;
8177;SDS011;4130;48.740;9.132;2023-02-08T14:17:57;9.90;;;4.40;;
8177;SDS011;4130;48.740;9.132;2023-02-08T14:20:28;10.60;;;4.43;;
8177;SDS011;4130;48.740;9.132;2023-02-08T14:23:01;5.90;;;4.00;;
8177;SDS011;4130;48.740;9.132;2023-02-08T14:26:05;6.70;;;3.83;;
8177;SDS011;4130;48.740;9.132;2023-02-08T14:28:35;11.03;;;4.40;;
8177;SDS011;4130;48.740;9.132;2023-02-08T14:31:07;7.80;;;4.47;;
8177;SDS011;4130;48.740;9.132;2023-02-08T14:36:27;9.80;;;4.60;;
8177;SDS011;4130;48.740;9.132;2023-02-08T14:41:52;7.67;;;4.50;;
8177;SDS011;4130;48.740;9.132;2023-02-08T14:50:55;9.57;;;5.00;;
8177;SDS011;4130;48.740;9.132;2023-02-08T14:53:45;8.30;;;4.83;;
8177;SDS011;4130;48.740;9.132;2023-02-08T14:56:15;6.20;;;4.43;;
8177;SDS011;4130;48.740;9.132;2023-02-08T14:58:45;9.63;;;4.67;;
8177;SDS011;4130;48.740;9.132;2023-02-08T15:01:17;11.30;;;5.00;;
8177;SDS011;4130;48.740;9.132;2023-02-08T15:03:46;9.20;;;5.23;;
8177;SDS011;4130;48.740;9.132;2023-02-08T15:09:30;7.93;;;5.07;;
8177;SDS011;4130;48.740;9.132;2023-02-08T15:12:03;8.47;;;4.70;;
8177;SDS011;4130;48.740;9.132;2023-02-08T15:14:34;7.93;;;4.67;;
8177;SDS011;4130;48.740;9.132;2023-02-08T15:17:02;9.00;;;4.83;;
8177;SDS011;4130;48.740;9.132;2023-02-08T15:19:30;9.67;;;5.70;;
8177;SDS011;4130;48.740;9.132;2023-02-08T15:24:55;7.53;;;5.07;;
8177;SDS011;4130;48.740;9.132;2023-02-08T15:27:25;7.83;;;5.20;;
8177;SDS011;4130;48.740;9.132;2023-02-08T15:29:54;8.93;;;5.47;;
8177;SDS011;4130;48.740;9.132;2023-02-08T15:32:21;7.97;;;5.17;;
8177;SDS011;4130;48.740;9.132;2023-02-08T15:34:52;9.60;;;5.47;;
8177;SDS011;4130;48.740;9.132;2023-02-08T15:37:22;7.73;;;5.23;;
8177;SDS011;4130;48.740;9.132;2023-02-08T15:39:49;10.57;;;5.73;;
8177;SDS011;4130;48.740;9.132;2023-02-08T15:42:19;12.53;;;5.90;;
8177;SDS011;4130;48.740;9.132;2023-02-08T15:44:49;8.70;;;5.37;;
8177;SDS011;4130;48.740;9.132;2023-02-08T15:47:18;8.73;;;5.03;;
8177;SDS011;4130;48.740;9.132;2023-02-08T15:49:51;7.60;;;4.87;;
8177;SDS011;4130;48.740;9.132;2023-02-08T15:52:22;8.67;;;5.43;;
8177;SDS011;4130;48.740;9.132;2023-02-08T15:54:50;9.10;;;6.00;;
8177;SDS011;4130;48.740;9.132;2023-02-08T15:57:20;8.43;;;5.20;;
8177;SDS011;4130;48.740;9.132;2023-02-08T15:59:58;10.27;;;5.67;;
8177;SDS011;4130;48.740;9.132;2023-02-08T16:02:26;10.93;;;6.10;;
8177;SDS011;4130;48.740;9.132;2023-02-08T16:04:55;8.83;;;5.27;;
8177;SDS011;4130;48.740;9.132;2023-02-08T16:07:26;7.73;;;4.77;;
8177;SDS011;4130;48.740;9.132;2023-02-08T16:09:56;10.73;;;5.87;;
8177;SDS011;4130;48.740;9.132;2023-02-08T16:12:24;10.60;;;5.40;;
8177;SDS011;4130;48.740;9.132;2023-02-08T16:14:52;12.93;;;6.07;;
8177;SDS011;4130;48.740;9.132;2023-02-08T16:17:30;9.57;;;6.00;;
8177;SDS011;4130;48.740;9.132;2023-02-08T16:20:00;8.97;;;5.83;;